Terminal Aerodrome Forecast
Issued by NWS

Home | Current Version | Previous Version | Text Only | Print | Product List | Glossary On
Versions: 1 2 3 4 5 6 7 8 9 10 11 12 13 14
254
FTUS41 KBTV 290522
TAFMPV
TAF
KMPV 290522Z 2906/3006 20004KT P6SM BKN150
     FM291100 VRB04KT P6SM VCSH BKN060 BKN100
     FM291600 29007KT P6SM BKN060
     FM291800 30011G21KT P6SM BKN050
     FM300100 33009KT P6SM FEW250=

USA.gov is the U.S. government's official web portal to all federal, state and local government web resources and services.